createdAt,value
2023-03-03T00:01:32.991Z,100634.91
2023-03-03T00:04:02.561Z,100634.56
2023-03-03T00:06:33.084Z,100628.66
2023-03-03T00:09:02.086Z,100630.69
2023-03-03T00:11:31.093Z,100623.03
2023-03-03T00:14:00.217Z,100615.66
2023-03-03T00:16:31.229Z,100614.44
2023-03-03T00:19:01.307Z,100618.44
2023-03-03T00:21:31.112Z,100620.88
2023-03-03T00:24:18.980Z,100618.84
2023-03-03T00:26:50.277Z,100619.13
2023-03-03T00:29:30.944Z,100616.34
2023-03-03T00:32:14.766Z,100610.88
2023-03-03T00:34:45.237Z,100610.34
2023-03-03T00:37:32.664Z,100605.09
2023-03-03T00:40:17.968Z,100596.78
2023-03-03T00:42:51.333Z,100592.59
2023-03-03T00:45:28.375Z,100594.94
2023-03-03T00:47:58.305Z,100589.00
2023-03-03T00:50:30.308Z,100587.47
2023-03-03T00:53:04.906Z,100583.66
2023-03-03T00:55:36.046Z,100579.78
2023-03-03T00:58:05.467Z,100575.44
2023-03-03T01:00:39.445Z,100566.41
2023-03-03T01:03:17.688Z,100567.22
2023-03-03T01:05:47.293Z,100565.19
2023-03-03T01:08:16.494Z,100568.38
2023-03-03T01:10:51.025Z,100562.19
2023-03-03T01:13:20.821Z,100556.78
2023-03-03T01:15:50.049Z,100551.72
2023-03-03T01:18:19.323Z,100547.06
2023-03-03T01:20:48.572Z,100546.59
2023-03-03T01:23:17.713Z,100547.81
2023-03-03T01:25:47.922Z,100541.56
2023-03-03T01:28:16.954Z,100535.56
2023-03-03T01:30:46.112Z,100528.31
2023-03-03T01:33:15.210Z,100526.59
2023-03-03T01:35:46.538Z,100523.19
2023-03-03T01:38:16.036Z,100515.94
2023-03-03T01:40:44.650Z,100521.91
2023-03-03T01:43:16.798Z,100524.47
2023-03-03T01:46:37.023Z,100516.13
2023-03-03T01:49:07.335Z,100517.22
2023-03-03T01:51:36.726Z,100516.50
2023-03-03T01:54:07.987Z,100507.78
2023-03-03T01:56:37.070Z,100510.59
2023-03-03T01:59:10.058Z,100509.00
2023-03-03T02:01:38.919Z,100501.50
2023-03-03T02:04:08.285Z,100509.81
2023-03-03T02:06:40.039Z,100513.19
2023-03-03T02:09:13.362Z,100509.66
2023-03-03T02:11:44.269Z,100510.09
2023-03-03T02:14:14.964Z,100507.16
2023-03-03T02:16:44.970Z,100500.78
2023-03-03T02:19:21.150Z,100506.59
2023-03-03T02:21:50.913Z,100513.13
2023-03-03T02:24:25.809Z,100511.22
2023-03-03T02:26:56.483Z,100512.66
2023-03-03T02:29:25.686Z,100514.00
2023-03-03T02:31:54.833Z,100505.47
2023-03-03T02:34:24.556Z,100515.59
2023-03-03T02:36:54.351Z,100512.03
2023-03-03T02:39:25.268Z,100508.25
2023-03-03T02:42:00.652Z,100509.78
2023-03-03T02:44:36.690Z,100508.94
2023-03-03T02:47:05.979Z,100504.63
2023-03-03T02:49:36.261Z,100504.63
2023-03-03T02:52:09.960Z,100504.75
2023-03-03T02:54:41.631Z,100507.22
2023-03-03T02:57:12.413Z,100505.78
2023-03-03T02:59:41.483Z,100502.16
2023-03-03T03:02:16.354Z,100513.69
2023-03-03T03:04:45.053Z,100505.03
2023-03-03T03:07:18.103Z,100501.00
2023-03-03T03:09:47.993Z,100494.75
2023-03-03T03:12:21.343Z,100500.13
2023-03-03T03:14:53.632Z,100490.56
2023-03-03T03:17:22.769Z,100490.78
2023-03-03T03:19:53.239Z,100494.09
2023-03-03T03:22:22.528Z,100494.06
2023-03-03T03:24:51.932Z,100493.50
2023-03-03T03:27:23.580Z,100493.50
2023-03-03T03:29:54.182Z,100493.56
2023-03-03T03:32:23.854Z,100488.50
2023-03-03T03:34:58.176Z,100490.13
2023-03-03T03:37:27.586Z,100483.19
2023-03-03T03:39:56.820Z,100494.31
2023-03-03T03:42:28.370Z,100479.75
2023-03-03T03:44:58.559Z,100489.34
2023-03-03T03:47:27.952Z,100484.09
2023-03-03T03:49:57.271Z,100496.53
2023-03-03T03:52:26.346Z,100490.13
2023-03-03T03:54:55.394Z,100488.47
2023-03-03T03:57:26.585Z,100488.16
2023-03-03T03:59:57.828Z,100473.63
2023-03-03T04:02:27.373Z,100467.25
2023-03-03T04:04:56.124Z,100456.59
2023-03-03T04:07:25.172Z,100460.97
2023-03-03T04:09:54.544Z,100472.94
2023-03-03T04:12:25.378Z,100463.41
2023-03-03T04:14:55.649Z,100474.59
2023-03-03T04:17:26.259Z,100463.16
2023-03-03T04:19:55.377Z,100467.28
2023-03-03T04:22:25.019Z,100463.69
2023-03-03T04:24:54.564Z,100465.19
2023-03-03T04:27:24.006Z,100463.00
2023-03-03T04:29:53.468Z,100459.41
2023-03-03T04:32:23.021Z,100447.84
2023-03-03T04:35:05.803Z,100452.66
2023-03-03T04:37:38.960Z,100448.28
2023-03-03T04:40:10.747Z,100449.13
2023-03-03T04:42:40.642Z,100432.47
2023-03-03T04:45:12.479Z,100443.38
2023-03-03T04:47:41.950Z,100445.06
2023-03-03T04:50:13.525Z,100446.25
2023-03-03T04:52:42.968Z,100437.53
2023-03-03T04:55:12.720Z,100434.19
2023-03-03T04:57:42.412Z,100438.34
2023-03-03T05:00:13.281Z,100436.06
2023-03-03T05:02:42.966Z,100431.84
2023-03-03T05:05:13.810Z,100418.47
2023-03-03T05:07:42.955Z,100414.84
2023-03-03T05:10:12.940Z,100418.66
2023-03-03T05:12:42.088Z,100420.66
2023-03-03T05:15:12.131Z,100431.50
2023-03-03T05:17:41.315Z,100429.25
2023-03-03T05:20:14.041Z,100427.56
2023-03-03T05:22:42.906Z,100429.59
2023-03-03T05:25:12.789Z,100437.13
2023-03-03T05:27:43.966Z,100434.03
2023-03-03T05:30:14.818Z,100429.41
2023-03-03T05:32:45.101Z,100427.22
2023-03-03T05:35:15.815Z,100431.34
2023-03-03T05:37:47.680Z,100426.19
2023-03-03T05:40:16.988Z,100429.31
2023-03-03T05:42:46.256Z,100430.84
2023-03-03T05:45:15.659Z,100432.53
2023-03-03T05:47:44.716Z,100413.25
2023-03-03T05:50:15.471Z,100429.16
2023-03-03T05:52:44.406Z,100435.81
2023-03-03T05:55:13.481Z,100431.94
2023-03-03T05:57:43.822Z,100425.25
2023-03-03T06:00:14.905Z,100435.16
2023-03-03T06:02:45.345Z,100428.44
2023-03-03T06:05:16.013Z,100432.53
2023-03-03T06:07:45.297Z,100420.34
2023-03-03T06:10:14.426Z,100414.63
2023-03-03T06:12:46.815Z,100415.75
2023-03-03T06:15:16.813Z,100418.69
2023-03-03T06:17:45.942Z,100417.94
2023-03-03T06:20:16.713Z,100422.75
2023-03-03T06:22:45.512Z,100424.34
2023-03-03T06:25:16.599Z,100433.56
2023-03-03T06:27:46.275Z,100425.19
2023-03-03T06:30:16.756Z,100442.38
2023-03-03T06:32:46.252Z,100437.09
2023-03-03T06:35:18.447Z,100432.53
2023-03-03T06:37:47.383Z,100432.47
2023-03-03T06:40:16.683Z,100428.78
2023-03-03T06:42:45.996Z,100432.72
2023-03-03T06:45:17.032Z,100433.06
2023-03-03T06:47:46.168Z,100426.63
2023-03-03T06:50:16.795Z,100430.66
2023-03-03T06:52:45.590Z,100438.22
2023-03-03T06:55:18.145Z,100439.69
2023-03-03T06:57:48.357Z,100428.19
2023-03-03T07:00:21.490Z,100435.03
2023-03-03T07:02:55.746Z,100424.06
2023-03-03T07:05:29.049Z,100427.81
2023-03-03T07:07:58.132Z,100429.69
2023-03-03T07:10:28.721Z,100435.59
2023-03-03T07:13:00.191Z,100427.28
2023-03-03T07:15:32.191Z,100420.91
2023-03-03T07:18:02.682Z,100424.66
2023-03-03T07:20:37.104Z,100421.66
2023-03-03T07:23:15.342Z,100416.88
2023-03-03T07:25:46.790Z,100418.50
2023-03-03T07:28:22.410Z,100418.84
2023-03-03T07:30:51.692Z,100408.13
2023-03-03T07:33:27.557Z,100414.00
2023-03-03T07:35:59.524Z,100409.50
2023-03-03T07:38:33.639Z,100413.25
2023-03-03T07:41:04.382Z,100420.81
2023-03-03T07:43:37.149Z,100424.28
2023-03-03T07:46:30.245Z,100426.81
2023-03-03T07:49:00.288Z,100437.09
2023-03-03T07:51:37.726Z,100429.13
2023-03-03T07:54:28.676Z,100431.75
2023-03-03T07:56:59.617Z,100436.88
2023-03-03T07:59:28.812Z,100443.00
2023-03-03T08:02:01.645Z,100437.53
2023-03-03T08:04:34.412Z,100437.53
2023-03-03T08:07:05.054Z,100433.16
2023-03-03T08:09:57.979Z,100439.28
2023-03-03T08:12:47.421Z,100438.38
2023-03-03T08:15:24.876Z,100448.28
2023-03-03T08:17:56.316Z,100439.59
2023-03-03T08:20:52.914Z,100436.16
2023-03-03T08:23:23.485Z,100441.16
2023-03-03T08:25:53.472Z,100452.88
2023-03-03T08:28:23.588Z,100453.03
2023-03-03T08:31:02.730Z,100461.38
2023-03-03T08:33:38.704Z,100455.13
2023-03-03T08:36:08.692Z,100467.34
2023-03-03T08:38:40.585Z,100460.13
2023-03-03T08:41:10.025Z,100462.22
2023-03-03T08:43:38.937Z,100465.97
2023-03-03T08:46:10.450Z,100470.91
2023-03-03T08:48:40.201Z,100462.56
2023-03-03T08:51:09.356Z,100469.41
2023-03-03T08:53:39.955Z,100485.22
2023-03-03T08:56:10.480Z,100476.44
2023-03-03T08:58:40.856Z,100489.72
2023-03-03T09:01:14.550Z,100488.53
2023-03-03T09:03:43.774Z,100481.31
2023-03-03T09:06:13.011Z,100484.63
2023-03-03T09:08:43.583Z,100479.69
2023-03-03T09:11:16.608Z,100496.22
2023-03-03T09:13:45.422Z,100499.03
2023-03-03T09:16:16.076Z,100490.16
2023-03-03T09:18:45.834Z,100487.91
2023-03-03T09:21:21.016Z,100477.91
2023-03-03T09:23:56.211Z,100467.59
2023-03-03T09:26:28.614Z,100460.50
2023-03-03T09:29:00.376Z,100463.34
2023-03-03T09:31:39.957Z,100461.63
2023-03-03T09:34:21.724Z,100453.34
2023-03-03T09:36:51.519Z,100444.53
2023-03-03T09:39:24.057Z,100441.94
2023-03-03T09:42:17.969Z,100444.41
2023-03-03T09:45:23.067Z,100458.75
2023-03-03T09:48:16.561Z,100450.97
2023-03-03T09:50:52.259Z,100445.19
2023-03-03T09:53:31.572Z,100446.88
2023-03-03T09:56:11.000Z,100438.94
2023-03-03T09:58:51.793Z,100436.06
2023-03-03T10:01:34.686Z,100431.75
2023-03-03T10:04:26.078Z,100434.56
2023-03-03T10:07:00.813Z,100430.28
2023-03-03T10:10:04.804Z,100416.44
2023-03-03T10:12:38.805Z,100429.63
2023-03-03T10:15:20.752Z,100434.19
2023-03-03T10:17:52.921Z,100429.59
2023-03-03T10:20:49.579Z,100418.84
2023-03-03T10:23:24.861Z,100433.16
2023-03-03T10:26:01.288Z,100424.56
2023-03-03T10:28:58.334Z,100434.75
2023-03-03T10:31:38.908Z,100430.66
2023-03-03T10:34:18.892Z,100422.91
2023-03-03T10:36:53.982Z,100430.22
2023-03-03T10:39:39.919Z,100440.47
2023-03-03T10:42:21.232Z,100452.69
2023-03-03T10:45:00.809Z,100447.56
2023-03-03T10:47:55.827Z,100454.53
2023-03-03T10:50:29.543Z,100452.88
2023-03-03T10:53:09.480Z,100458.38
2023-03-03T10:55:44.081Z,100452.41
2023-03-03T10:58:34.364Z,100448.75
2023-03-03T11:01:06.382Z,100451.53
2023-03-03T11:03:55.024Z,100446.97
2023-03-03T11:06:27.357Z,100441.84
2023-03-03T11:08:58.778Z,100435.50
2023-03-03T11:11:34.869Z,100440.41
2023-03-03T11:14:10.784Z,100439.97
2023-03-03T11:16:49.682Z,100453.56
2023-03-03T11:19:35.881Z,100459.97
2023-03-03T11:22:14.732Z,100459.75
2023-03-03T11:24:56.676Z,100458.44
2023-03-03T11:27:40.092Z,100459.22
2023-03-03T11:30:35.694Z,100447.22
2023-03-03T11:33:09.535Z,100443.34
2023-03-03T11:35:44.824Z,100425.03
2023-03-03T11:38:26.346Z,100434.94
2023-03-03T11:40:58.297Z,100430.59
2023-03-03T11:43:37.155Z,100423.25
2023-03-03T11:46:09.751Z,100425.47
2023-03-03T11:48:45.458Z,100418.31
2023-03-03T11:51:17.414Z,100423.72
2023-03-03T11:54:01.129Z,100415.94
2023-03-03T11:56:35.584Z,100410.53
2023-03-03T11:59:19.433Z,100415.97
2023-03-03T12:01:54.100Z,100418.22
2023-03-03T12:04:30.971Z,100436.88
2023-03-03T12:07:19.031Z,100433.53
2023-03-03T12:09:57.176Z,100424.00
2023-03-03T12:12:29.435Z,100426.78
2023-03-03T12:15:08.643Z,100429.13
2023-03-03T12:17:50.751Z,100431.56
2023-03-03T12:20:26.056Z,100420.50
2023-03-03T12:23:07.174Z,100425.03
2023-03-03T12:25:38.682Z,100422.41
2023-03-03T12:28:10.753Z,100433.81
2023-03-03T12:31:14.136Z,100427.56
2023-03-03T12:34:02.416Z,100431.56
2023-03-03T12:36:52.373Z,100425.03
2023-03-03T12:39:35.352Z,100422.41
2023-03-03T12:42:10.659Z,100428.97
2023-03-03T12:44:45.582Z,100422.09
2023-03-03T12:47:23.175Z,100424.31
2023-03-03T12:50:07.866Z,100421.44
2023-03-03T12:52:46.542Z,100420.59
2023-03-03T12:55:20.664Z,100419.94
2023-03-03T12:57:55.765Z,100421.00
2023-03-03T13:00:30.893Z,100426.22
2023-03-03T13:03:05.057Z,100420.91
2023-03-03T13:05:46.133Z,100422.78
2023-03-03T13:08:34.869Z,100418.94
2023-03-03T13:11:15.712Z,100420.47
2023-03-03T13:13:51.855Z,100429.81
2023-03-03T13:16:38.921Z,100421.91
2023-03-03T13:19:11.689Z,100424.66
2023-03-03T13:21:43.784Z,100420.03
2023-03-03T13:24:20.564Z,100424.75
2023-03-03T13:26:52.341Z,100421.84
2023-03-03T13:29:26.833Z,100415.78
2023-03-03T13:31:57.852Z,100411.56
2023-03-03T13:34:38.783Z,100417.69
2023-03-03T13:37:14.440Z,100403.41
2023-03-03T13:39:55.368Z,100410.34
2023-03-03T13:42:27.716Z,100404.94
2023-03-03T13:44:58.081Z,100398.50
2023-03-03T13:47:30.626Z,100397.19
2023-03-03T13:50:16.813Z,100388.72
2023-03-03T13:52:52.813Z,100395.50
2023-03-03T13:55:31.308Z,100390.47
2023-03-03T13:58:10.376Z,100385.25
2023-03-03T14:00:54.123Z,100389.72
2023-03-03T14:03:43.547Z,100391.63
2023-03-03T14:06:16.172Z,100384.47
2023-03-03T14:09:02.629Z,100386.72
2023-03-03T14:11:37.645Z,100383.91
2023-03-03T14:14:13.887Z,100385.19
2023-03-03T14:16:51.826Z,100391.66
2023-03-03T14:19:26.612Z,100391.84
2023-03-03T14:22:09.992Z,100385.56
2023-03-03T14:24:58.187Z,100386.34
2023-03-03T14:27:30.444Z,100384.84
2023-03-03T14:29:59.649Z,100392.56
2023-03-03T14:32:44.429Z,100391.19
2023-03-03T14:35:26.248Z,100389.16
2023-03-03T14:38:03.503Z,100389.44
2023-03-03T14:40:33.814Z,100385.59
2023-03-03T14:43:08.005Z,100394.31
2023-03-03T14:45:39.395Z,100390.63
2023-03-03T14:48:16.199Z,100389.03
2023-03-03T14:50:51.438Z,100389.34
2023-03-03T14:53:32.889Z,100391.31
2023-03-03T14:56:18.976Z,100385.22
2023-03-03T14:58:50.044Z,100374.78
2023-03-03T15:01:25.491Z,100374.59
2023-03-03T15:04:01.586Z,100378.41
2023-03-03T15:06:34.763Z,100380.38
2023-03-03T15:09:26.270Z,100371.03
2023-03-03T15:11:56.764Z,100371.63
2023-03-03T15:14:32.174Z,100370.03
2023-03-03T15:17:19.254Z,100383.66
2023-03-03T15:20:20.022Z,100385.81
2023-03-03T15:22:50.485Z,100381.78
2023-03-03T15:25:41.973Z,100382.69
2023-03-03T15:28:27.989Z,100376.81
2023-03-03T15:31:05.602Z,100375.75
2023-03-03T15:33:37.473Z,100384.28
2023-03-03T15:36:10.447Z,100392.50
2023-03-03T15:38:47.770Z,100384.78
2023-03-03T15:41:28.522Z,100382.72
2023-03-03T15:44:08.036Z,100376.19
2023-03-03T15:46:55.583Z,100382.13
2023-03-03T15:49:38.397Z,100377.75
2023-03-03T15:52:22.743Z,100380.81
2023-03-03T15:55:01.906Z,100376.06
2023-03-03T15:57:40.850Z,100364.59
2023-03-03T16:00:33.328Z,100364.59
2023-03-03T16:03:12.662Z,100365.47
2023-03-03T16:05:48.738Z,100368.34
2023-03-03T16:08:21.230Z,100368.41
2023-03-03T16:11:00.249Z,100372.59
2023-03-03T16:13:40.991Z,100370.28
2023-03-03T16:16:20.705Z,100374.66
2023-03-03T16:19:06.076Z,100370.03
2023-03-03T16:22:01.017Z,100371.03
2023-03-03T16:24:38.873Z,100373.28
2023-03-03T16:27:16.870Z,100374.31
2023-03-03T16:29:54.454Z,100367.00
2023-03-03T16:32:28.117Z,100363.31
2023-03-03T16:34:59.902Z,100360.34
2023-03-03T16:37:32.394Z,100355.69
2023-03-03T16:40:09.916Z,100353.66
2023-03-03T16:42:39.284Z,100363.78
2023-03-03T16:45:21.852Z,100352.75
2023-03-03T16:48:01.347Z,100361.50
2023-03-03T16:50:41.197Z,100353.41
2023-03-03T16:53:18.938Z,100360.19
2023-03-03T16:55:55.746Z,100353.22
2023-03-03T16:58:36.300Z,100359.94
2023-03-03T17:01:10.768Z,100355.09
2023-03-03T17:03:52.961Z,100352.94
2023-03-03T17:06:32.356Z,100367.91
2023-03-03T17:09:30.137Z,100367.69
2023-03-03T17:12:12.980Z,100358.25
2023-03-03T17:14:53.234Z,100365.53
2023-03-03T17:17:31.196Z,100358.16
2023-03-03T17:20:08.196Z,100356.88
2023-03-03T17:22:47.622Z,100354.50
2023-03-03T17:25:23.366Z,100352.31
2023-03-03T17:28:07.032Z,100355.25
2023-03-03T17:30:43.526Z,100360.41
2023-03-03T17:33:34.055Z,100365.56
2023-03-03T17:36:18.445Z,100360.72
2023-03-03T17:38:57.743Z,100350.59
2023-03-03T17:41:31.636Z,100362.84
2023-03-03T17:44:04.025Z,100364.91
2023-03-03T17:46:35.962Z,100359.84
2023-03-03T17:49:21.456Z,100352.75
2023-03-03T17:52:29.194Z,100346.81
2023-03-03T17:55:10.333Z,100347.91
2023-03-03T17:58:00.407Z,100338.22
2023-03-03T18:00:46.299Z,100346.59
2023-03-03T18:03:29.963Z,100349.00
2023-03-03T18:06:32.844Z,100351.78
2023-03-03T18:09:18.688Z,100343.19
2023-03-03T18:12:01.219Z,100342.09
2023-03-03T18:14:43.508Z,100335.84
2023-03-03T18:17:24.433Z,100343.47
2023-03-03T18:20:06.026Z,100332.88
2023-03-03T18:22:36.092Z,100344.34
2023-03-03T18:25:06.345Z,100330.88
2023-03-03T18:27:37.617Z,100329.91
2023-03-03T18:30:33.558Z,100336.88
2023-03-03T18:33:13.823Z,100335.28
2023-03-03T18:35:44.122Z,100335.50
2023-03-03T18:38:26.745Z,100325.94
2023-03-03T18:40:58.670Z,100315.53
2023-03-03T18:43:57.112Z,100313.47
2023-03-03T18:46:49.503Z,100331.44
2023-03-03T18:49:18.976Z,100324.19
2023-03-03T18:52:18.839Z,100325.00
2023-03-03T18:55:03.309Z,100315.94
2023-03-03T18:57:32.647Z,100305.78
2023-03-03T19:00:17.149Z,100304.53
2023-03-03T19:02:54.420Z,100286.53
2023-03-03T19:05:25.719Z,100290.63
2023-03-03T19:07:59.505Z,100287.41
2023-03-03T19:10:54.970Z,100297.81
2023-03-03T19:13:49.855Z,100295.59
2023-03-03T19:16:37.558Z,100303.59
2023-03-03T19:19:12.052Z,100291.31
2023-03-03T19:21:42.863Z,100296.84
2023-03-03T19:24:29.283Z,100304.31
2023-03-03T19:27:13.269Z,100298.91
2023-03-03T19:30:02.504Z,100277.41
2023-03-03T19:32:50.328Z,100276.16
2023-03-03T19:35:26.398Z,100265.50
2023-03-03T19:38:03.153Z,100282.91
2023-03-03T19:40:38.431Z,100289.78
2023-03-03T19:43:15.526Z,100296.56
2023-03-03T19:45:59.219Z,100291.13
2023-03-03T19:48:36.350Z,100289.72
2023-03-03T19:51:12.040Z,100282.81
2023-03-03T19:53:46.910Z,100277.50
2023-03-03T19:56:34.244Z,100273.75
2023-03-03T19:59:11.111Z,100262.94
2023-03-03T20:01:49.235Z,100254.72
2023-03-03T20:04:38.296Z,100256.13
2023-03-03T20:07:17.704Z,100255.34
2023-03-03T20:09:50.526Z,100243.34
2023-03-03T20:12:30.071Z,100234.69
2023-03-03T20:15:10.367Z,100243.84
2023-03-03T20:17:43.169Z,100235.00
2023-03-03T20:20:34.481Z,100234.47
2023-03-03T20:23:11.346Z,100233.75
2023-03-03T20:25:45.142Z,100233.63
2023-03-03T20:28:28.327Z,100227.97
2023-03-03T20:31:03.112Z,100219.66
2023-03-03T20:33:45.802Z,100208.16
2023-03-03T20:36:26.083Z,100204.63
2023-03-03T20:39:04.339Z,100209.09
2023-03-03T20:41:54.379Z,100205.66
2023-03-03T20:44:33.971Z,100213.13
2023-03-03T20:47:07.610Z,100197.38
2023-03-03T20:49:52.432Z,100191.59
2023-03-03T20:52:27.321Z,100190.47
2023-03-03T20:55:05.261Z,100198.03
2023-03-03T20:57:41.876Z,100201.53
2023-03-03T21:00:15.627Z,100204.50
2023-03-03T21:02:49.891Z,100198.91
2023-03-03T21:05:20.741Z,100188.34
2023-03-03T21:07:55.503Z,100183.84
2023-03-03T21:10:26.016Z,100180.84
2023-03-03T21:12:56.134Z,100161.50
2023-03-03T21:15:28.853Z,100157.84
2023-03-03T21:17:59.153Z,100164.03
2023-03-03T21:20:32.810Z,100153.44
2023-03-03T21:23:03.894Z,100154.50
2023-03-03T21:25:52.224Z,100160.38
2023-03-03T21:28:23.957Z,100156.16
2023-03-03T21:31:19.895Z,100145.53
2023-03-03T21:33:51.762Z,100148.88
2023-03-03T21:36:23.357Z,100153.34
2023-03-03T21:38:55.894Z,100148.31
2023-03-03T21:41:25.460Z,100135.75
2023-03-03T21:43:55.526Z,100139.84
2023-03-03T21:46:26.437Z,100126.97
2023-03-03T21:48:55.831Z,100123.91
2023-03-03T21:51:26.375Z,100120.38
2023-03-03T21:53:57.085Z,100118.66
2023-03-03T21:56:26.376Z,100116.81
2023-03-03T21:58:55.154Z,100116.59
2023-03-03T22:01:24.425Z,100100.69
2023-03-03T22:03:53.650Z,100103.59
2023-03-03T22:06:22.790Z,100103.63
2023-03-03T22:08:52.068Z,100105.28
2023-03-03T22:11:22.613Z,100097.69
2023-03-03T22:13:51.008Z,100099.91
2023-03-03T22:16:20.404Z,100089.78
2023-03-03T22:18:49.483Z,100085.94
2023-03-03T22:21:18.739Z,100094.06
2023-03-03T22:23:47.928Z,100087.28
2023-03-03T22:26:16.987Z,100085.38
2023-03-03T22:28:47.247Z,100087.91
2023-03-03T22:31:16.451Z,100083.81
2023-03-03T22:33:45.824Z,100063.72
2023-03-03T22:36:15.964Z,100074.81
2023-03-03T22:38:44.926Z,100066.19
2023-03-03T22:41:14.176Z,100062.34
2023-03-03T22:43:43.217Z,100057.34
2023-03-03T22:46:13.814Z,100060.50
2023-03-03T22:48:42.928Z,100049.19
2023-03-03T22:51:12.107Z,100039.38
2023-03-03T22:53:41.331Z,100038.59
2023-03-03T22:56:13.254Z,100029.53
2023-03-03T22:58:42.875Z,100020.59
2023-03-03T23:01:13.445Z,100021.72
2023-03-03T23:03:43.925Z,100021.88
2023-03-03T23:06:13.521Z,100016.91
2023-03-03T23:08:42.613Z,100004.25
2023-03-03T23:11:11.645Z,100010.50
2023-03-03T23:13:40.388Z,100016.03
2023-03-03T23:16:09.692Z,100008.91
2023-03-03T23:18:40.275Z,100005.41
2023-03-03T23:21:09.600Z,99997.88
2023-03-03T23:23:38.558Z,99998.59
2023-03-03T23:26:07.617Z,99996.19
2023-03-03T23:28:36.302Z,99989.84
2023-03-03T23:31:05.677Z,99993.44
2023-03-03T23:33:35.427Z,99985.75
2023-03-03T23:36:07.470Z,99986.06
2023-03-03T23:38:36.681Z,99985.84
2023-03-03T23:41:06.044Z,99996.75
2023-03-03T23:43:35.265Z,99972.00
2023-03-03T23:46:04.583Z,99968.19
2023-03-03T23:48:33.723Z,99963.09
2023-03-03T23:51:03.446Z,99961.53
2023-03-03T23:53:33.927Z,99959.56
2023-03-03T23:56:02.927Z,99950.66
2023-03-03T23:58:31.633Z,99945.47
